Terminal Aerodrome Forecast
Issued by NWS Nashville, TN

Home | Current Version | Previous Version | Text Only | Print | Product List | Glossary On
Versions: 1 2 3 4 5 6 7 8 9 10 11 12 13 14 15 16 17 18 19 20 21 22 23 24 25 26 27 28
837
FTUS44 KOHX 011504 AAC
TAFBNA
TAF AMD
KBNA 011504Z 0115/0212 27007KT P6SM SCT040 BKN150
     FM011800 20004KT P6SM BKN025
     FM012100 26003KT P6SM OVC050
     FM020600 00000KT P6SM OVC015=

USA.gov is the U.S. government's official web portal to all federal, state and local government web resources and services.